sensor_id;sensor_type;location;lat;lon;timestamp;P1;durP1;ratioP1;P2;durP2;ratioP2
31128;SDS011;17777;48.770;8.944;2024-02-15T00:00:15;1.58;;;0.52;;
31128;SDS011;17777;48.770;8.944;2024-02-15T00:02:42;1.48;;;0.70;;
31128;SDS011;17777;48.770;8.944;2024-02-15T00:05:10;1.02;;;0.55;;
31128;SDS011;17777;48.770;8.944;2024-02-15T00:07:36;1.00;;;0.60;;
31128;SDS011;17777;48.770;8.944;2024-02-15T00:10:02;2.03;;;0.70;;
31128;SDS011;17777;48.770;8.944;2024-02-15T00:12:31;0.50;;;0.50;;
31128;SDS011;17777;48.770;8.944;2024-02-15T00:14:57;1.35;;;0.80;;
31128;SDS011;17777;48.770;8.944;2024-02-15T00:17:23;1.58;;;0.77;;
31128;SDS011;17777;48.770;8.944;2024-02-15T00:19:50;3.33;;;0.88;;
31128;SDS011;17777;48.770;8.944;2024-02-15T00:22:16;1.60;;;0.88;;
31128;SDS011;17777;48.770;8.944;2024-02-15T00:24:42;0.90;;;0.60;;
31128;SDS011;17777;48.770;8.944;2024-02-15T00:27:09;0.90;;;0.50;;
31128;SDS011;17777;48.770;8.944;2024-02-15T00:29:36;1.02;;;0.70;;
31128;SDS011;17777;48.770;8.944;2024-02-15T00:32:02;0.77;;;0.77;;
31128;SDS011;17777;48.770;8.944;2024-02-15T00:34:31;1.55;;;0.70;;
31128;SDS011;17777;48.770;8.944;2024-02-15T00:36:57;1.77;;;0.80;;
31128;SDS011;17777;48.770;8.944;2024-02-15T00:39:23;1.30;;;0.90;;
31128;SDS011;17777;48.770;8.944;2024-02-15T00:41:48;1.08;;;0.70;;
31128;SDS011;17777;48.770;8.944;2024-02-15T00:44:14;1.38;;;0.90;;
31128;SDS011;17777;48.770;8.944;2024-02-15T00:46:40;2.67;;;1.13;;
31128;SDS011;17777;48.770;8.944;2024-02-15T00:49:06;1.90;;;0.85;;
31128;SDS011;17777;48.770;8.944;2024-02-15T00:51:33;1.33;;;0.68;;
31128;SDS011;17777;48.770;8.944;2024-02-15T00:54:00;2.22;;;0.82;;
31128;SDS011;17777;48.770;8.944;2024-02-15T00:56:27;1.88;;;0.90;;
31128;SDS011;17777;48.770;8.944;2024-02-15T00:58:55;1.13;;;0.80;;
31128;SDS011;17777;48.770;8.944;2024-02-15T01:01:21;1.35;;;0.90;;
31128;SDS011;17777;48.770;8.944;2024-02-15T01:03:47;1.08;;;0.80;;
31128;SDS011;17777;48.770;8.944;2024-02-15T01:06:13;2.75;;;0.80;;
31128;SDS011;17777;48.770;8.944;2024-02-15T01:08:39;2.45;;;0.93;;
31128;SDS011;17777;48.770;8.944;2024-02-15T01:11:04;1.83;;;1.15;;
31128;SDS011;17777;48.770;8.944;2024-02-15T01:13:31;1.60;;;0.82;;
31128;SDS011;17777;48.770;8.944;2024-02-15T01:15:57;0.98;;;0.75;;
31128;SDS011;17777;48.770;8.944;2024-02-15T01:18:23;1.60;;;0.82;;
31128;SDS011;17777;48.770;8.944;2024-02-15T01:20:49;1.10;;;0.80;;
31128;SDS011;17777;48.770;8.944;2024-02-15T01:23:14;1.38;;;0.80;;
31128;SDS011;17777;48.770;8.944;2024-02-15T01:25:40;1.30;;;0.82;;
31128;SDS011;17777;48.770;8.944;2024-02-15T01:28:06;0.88;;;0.80;;
31128;SDS011;17777;48.770;8.944;2024-02-15T01:30:32;1.60;;;0.80;;
31128;SDS011;17777;48.770;8.944;2024-02-15T01:32:58;1.00;;;0.90;;
31128;SDS011;17777;48.770;8.944;2024-02-15T01:35:25;2.10;;;0.80;;
31128;SDS011;17777;48.770;8.944;2024-02-15T01:37:52;0.90;;;0.77;;
31128;SDS011;17777;48.770;8.944;2024-02-15T01:40:17;1.15;;;0.70;;
31128;SDS011;17777;48.770;8.944;2024-02-15T01:42:46;1.35;;;0.82;;
31128;SDS011;17777;48.770;8.944;2024-02-15T01:45:14;1.05;;;0.80;;
31128;SDS011;17777;48.770;8.944;2024-02-15T01:47:39;1.10;;;0.77;;
31128;SDS011;17777;48.770;8.944;2024-02-15T01:50:05;2.00;;;0.80;;
31128;SDS011;17777;48.770;8.944;2024-02-15T01:52:32;1.05;;;0.80;;
31128;SDS011;17777;48.770;8.944;2024-02-15T01:54:59;1.30;;;0.77;;
31128;SDS011;17777;48.770;8.944;2024-02-15T01:57:32;1.88;;;0.90;;
31128;SDS011;17777;48.770;8.944;2024-02-15T02:00:00;1.42;;;1.00;;
31128;SDS011;17777;48.770;8.944;2024-02-15T02:02:34;0.80;;;0.77;;
31128;SDS011;17777;48.770;8.944;2024-02-15T02:05:03;0.70;;;0.68;;
31128;SDS011;17777;48.770;8.944;2024-02-15T02:07:29;1.33;;;0.68;;
31128;SDS011;17777;48.770;8.944;2024-02-15T02:09:55;0.80;;;0.60;;
31128;SDS011;17777;48.770;8.944;2024-02-15T02:12:21;1.73;;;0.70;;
31128;SDS011;17777;48.770;8.944;2024-02-15T02:14:47;1.83;;;1.00;;
31128;SDS011;17777;48.770;8.944;2024-02-15T02:17:13;1.52;;;0.90;;
31128;SDS011;17777;48.770;8.944;2024-02-15T02:19:39;1.05;;;0.60;;
31128;SDS011;17777;48.770;8.944;2024-02-15T02:22:07;1.05;;;0.70;;
31128;SDS011;17777;48.770;8.944;2024-02-15T02:24:36;1.70;;;0.77;;
31128;SDS011;17777;48.770;8.944;2024-02-15T02:27:19;1.38;;;0.63;;
31128;SDS011;17777;48.770;8.944;2024-02-15T02:29:46;1.10;;;0.82;;
31128;SDS011;17777;48.770;8.944;2024-02-15T02:32:12;1.95;;;0.70;;
31128;SDS011;17777;48.770;8.944;2024-02-15T02:34:38;1.30;;;0.85;;
31128;SDS011;17777;48.770;8.944;2024-02-15T02:37:06;1.38;;;0.70;;
31128;SDS011;17777;48.770;8.944;2024-02-15T02:39:33;1.58;;;0.70;;
31128;SDS011;17777;48.770;8.944;2024-02-15T02:41:59;1.90;;;0.85;;
31128;SDS011;17777;48.770;8.944;2024-02-15T02:44:25;1.83;;;0.80;;
31128;SDS011;17777;48.770;8.944;2024-02-15T02:46:51;1.17;;;0.98;;
31128;SDS011;17777;48.770;8.944;2024-02-15T02:49:17;2.90;;;0.90;;
31128;SDS011;17777;48.770;8.944;2024-02-15T02:51:42;1.10;;;0.90;;
31128;SDS011;17777;48.770;8.944;2024-02-15T02:54:08;1.85;;;0.90;;
31128;SDS011;17777;48.770;8.944;2024-02-15T02:56:34;1.52;;;0.90;;
31128;SDS011;17777;48.770;8.944;2024-02-15T02:59:00;1.35;;;0.80;;
31128;SDS011;17777;48.770;8.944;2024-02-15T03:01:25;2.58;;;0.90;;
31128;SDS011;17777;48.770;8.944;2024-02-15T03:03:52;0.80;;;0.70;;
31128;SDS011;17777;48.770;8.944;2024-02-15T03:06:20;1.38;;;0.70;;
31128;SDS011;17777;48.770;8.944;2024-02-15T03:08:52;1.75;;;0.90;;
31128;SDS011;17777;48.770;8.944;2024-02-15T03:11:21;1.33;;;0.80;;
31128;SDS011;17777;48.770;8.944;2024-02-15T03:13:47;1.85;;;0.93;;
31128;SDS011;17777;48.770;8.944;2024-02-15T03:16:14;1.67;;;0.80;;
31128;SDS011;17777;48.770;8.944;2024-02-15T03:18:41;1.50;;;0.85;;
31128;SDS011;17777;48.770;8.944;2024-02-15T03:21:08;1.75;;;0.77;;
31128;SDS011;17777;48.770;8.944;2024-02-15T03:23:36;1.38;;;0.75;;
31128;SDS011;17777;48.770;8.944;2024-02-15T03:26:02;1.40;;;0.73;;
31128;SDS011;17777;48.770;8.944;2024-02-15T03:28:31;1.33;;;1.00;;
31128;SDS011;17777;48.770;8.944;2024-02-15T03:30:57;1.50;;;0.75;;
31128;SDS011;17777;48.770;8.944;2024-02-15T03:33:25;1.27;;;0.57;;
31128;SDS011;17777;48.770;8.944;2024-02-15T03:35:57;1.92;;;0.80;;
31128;SDS011;17777;48.770;8.944;2024-02-15T03:38:25;1.67;;;1.00;;
31128;SDS011;17777;48.770;8.944;2024-02-15T03:40:54;1.15;;;0.77;;
31128;SDS011;17777;48.770;8.944;2024-02-15T03:43:21;0.80;;;0.70;;
31128;SDS011;17777;48.770;8.944;2024-02-15T03:45:48;1.30;;;0.93;;
31128;SDS011;17777;48.770;8.944;2024-02-15T03:48:15;2.10;;;1.20;;
31128;SDS011;17777;48.770;8.944;2024-02-15T03:50:41;3.00;;;1.17;;
31128;SDS011;17777;48.770;8.944;2024-02-15T03:53:08;1.75;;;1.30;;
31128;SDS011;17777;48.770;8.944;2024-02-15T03:55:36;2.10;;;1.00;;
31128;SDS011;17777;48.770;8.944;2024-02-15T03:58:02;2.22;;;1.00;;
31128;SDS011;17777;48.770;8.944;2024-02-15T04:00:28;1.15;;;1.05;;
31128;SDS011;17777;48.770;8.944;2024-02-15T04:02:53;2.10;;;0.88;;
31128;SDS011;17777;48.770;8.944;2024-02-15T04:05:20;1.58;;;0.98;;
31128;SDS011;17777;48.770;8.944;2024-02-15T04:07:46;1.17;;;1.08;;
31128;SDS011;17777;48.770;8.944;2024-02-15T04:10:13;1.38;;;1.00;;
31128;SDS011;17777;48.770;8.944;2024-02-15T04:12:39;1.95;;;1.20;;
31128;SDS011;17777;48.770;8.944;2024-02-15T04:15:08;2.55;;;1.08;;
31128;SDS011;17777;48.770;8.944;2024-02-15T04:17:37;1.30;;;1.08;;
31128;SDS011;17777;48.770;8.944;2024-02-15T04:20:04;1.48;;;1.25;;
31128;SDS011;17777;48.770;8.944;2024-02-15T04:22:31;1.10;;;1.00;;
31128;SDS011;17777;48.770;8.944;2024-02-15T04:25:07;1.23;;;1.00;;
31128;SDS011;17777;48.770;8.944;2024-02-15T04:27:41;2.17;;;1.00;;
31128;SDS011;17777;48.770;8.944;2024-02-15T04:30:07;2.25;;;1.00;;
31128;SDS011;17777;48.770;8.944;2024-02-15T04:32:34;2.25;;;1.00;;
31128;SDS011;17777;48.770;8.944;2024-02-15T04:35:01;1.15;;;1.00;;
31128;SDS011;17777;48.770;8.944;2024-02-15T04:37:28;0.93;;;0.90;;
31128;SDS011;17777;48.770;8.944;2024-02-15T04:39:57;2.90;;;1.35;;
31128;SDS011;17777;48.770;8.944;2024-02-15T04:42:24;1.48;;;1.00;;
31128;SDS011;17777;48.770;8.944;2024-02-15T04:44:51;2.17;;;1.02;;
31128;SDS011;17777;48.770;8.944;2024-02-15T04:47:19;1.75;;;0.93;;
31128;SDS011;17777;48.770;8.944;2024-02-15T04:49:45;1.85;;;1.02;;
31128;SDS011;17777;48.770;8.944;2024-02-15T04:52:11;1.85;;;0.98;;
31128;SDS011;17777;48.770;8.944;2024-02-15T04:54:37;1.48;;;1.00;;
31128;SDS011;17777;48.770;8.944;2024-02-15T04:57:03;2.05;;;0.90;;
31128;SDS011;17777;48.770;8.944;2024-02-15T04:59:28;1.75;;;0.80;;
31128;SDS011;17777;48.770;8.944;2024-02-15T05:01:55;1.30;;;0.80;;
31128;SDS011;17777;48.770;8.944;2024-02-15T05:04:21;2.20;;;0.93;;
31128;SDS011;17777;48.770;8.944;2024-02-15T05:06:49;2.65;;;0.98;;
31128;SDS011;17777;48.770;8.944;2024-02-15T05:09:16;1.88;;;0.90;;
31128;SDS011;17777;48.770;8.944;2024-02-15T05:11:43;1.73;;;1.00;;
31128;SDS011;17777;48.770;8.944;2024-02-15T05:14:16;1.38;;;0.80;;
31128;SDS011;17777;48.770;8.944;2024-02-15T05:16:46;2.53;;;0.95;;
31128;SDS011;17777;48.770;8.944;2024-02-15T05:19:13;1.73;;;0.98;;
31128;SDS011;17777;48.770;8.944;2024-02-15T05:21:45;1.75;;;1.05;;
31128;SDS011;17777;48.770;8.944;2024-02-15T05:24:12;2.03;;;0.90;;
31128;SDS011;17777;48.770;8.944;2024-02-15T05:26:39;0.80;;;0.80;;
31128;SDS011;17777;48.770;8.944;2024-02-15T05:29:08;2.08;;;1.10;;
31128;SDS011;17777;48.770;8.944;2024-02-15T05:31:36;1.15;;;0.85;;
31128;SDS011;17777;48.770;8.944;2024-02-15T05:34:03;1.95;;;1.30;;
31128;SDS011;17777;48.770;8.944;2024-02-15T05:36:32;1.40;;;1.00;;
31128;SDS011;17777;48.770;8.944;2024-02-15T05:38:59;2.40;;;1.27;;
31128;SDS011;17777;48.770;8.944;2024-02-15T05:41:25;1.67;;;1.17;;
31128;SDS011;17777;48.770;8.944;2024-02-15T05:43:52;1.50;;;1.30;;
31128;SDS011;17777;48.770;8.944;2024-02-15T05:46:18;2.33;;;1.38;;
31128;SDS011;17777;48.770;8.944;2024-02-15T05:48:46;3.97;;;1.73;;
31128;SDS011;17777;48.770;8.944;2024-02-15T05:51:12;3.38;;;1.65;;
31128;SDS011;17777;48.770;8.944;2024-02-15T05:53:38;3.20;;;1.88;;
31128;SDS011;17777;48.770;8.944;2024-02-15T05:56:06;2.83;;;2.00;;
31128;SDS011;17777;48.770;8.944;2024-02-15T05:58:35;3.30;;;1.88;;
31128;SDS011;17777;48.770;8.944;2024-02-15T06:01:02;2.83;;;1.67;;
31128;SDS011;17777;48.770;8.944;2024-02-15T06:03:31;3.03;;;1.55;;
31128;SDS011;17777;48.770;8.944;2024-02-15T06:06:03;2.78;;;1.45;;
31128;SDS011;17777;48.770;8.944;2024-02-15T06:08:33;1.95;;;1.20;;
31128;SDS011;17777;48.770;8.944;2024-02-15T06:10:59;2.10;;;1.30;;
31128;SDS011;17777;48.770;8.944;2024-02-15T06:13:26;1.35;;;1.25;;
31128;SDS011;17777;48.770;8.944;2024-02-15T06:15:52;2.25;;;1.45;;
31128;SDS011;17777;48.770;8.944;2024-02-15T06:18:23;2.28;;;1.45;;
31128;SDS011;17777;48.770;8.944;2024-02-15T06:20:57;5.20;;;1.55;;
31128;SDS011;17777;48.770;8.944;2024-02-15T06:23:27;2.03;;;0.87;;
31128;SDS011;17777;48.770;8.944;2024-02-15T06:25:56;1.30;;;1.20;;
31128;SDS011;17777;48.770;8.944;2024-02-15T06:28:28;1.63;;;1.00;;
31128;SDS011;17777;48.770;8.944;2024-02-15T06:31:13;1.90;;;1.27;;
31128;SDS011;17777;48.770;8.944;2024-02-15T06:33:58;1.73;;;1.10;;
31128;SDS011;17777;48.770;8.944;2024-02-15T06:39:34;2.70;;;1.65;;
31128;SDS011;17777;48.770;8.944;2024-02-15T06:42:05;1.80;;;1.38;;
31128;SDS011;17777;48.770;8.944;2024-02-15T06:44:33;3.05;;;1.15;;
31128;SDS011;17777;48.770;8.944;2024-02-15T06:46:58;1.52;;;1.40;;
31128;SDS011;17777;48.770;8.944;2024-02-15T06:49:25;1.92;;;1.10;;
31128;SDS011;17777;48.770;8.944;2024-02-15T06:51:52;1.40;;;1.25;;
31128;SDS011;17777;48.770;8.944;2024-02-15T06:54:18;1.48;;;1.27;;
31128;SDS011;17777;48.770;8.944;2024-02-15T06:56:47;2.45;;;1.25;;
31128;SDS011;17777;48.770;8.944;2024-02-15T06:59:13;1.38;;;1.02;;
31128;SDS011;17777;48.770;8.944;2024-02-15T07:01:42;2.70;;;1.50;;
31128;SDS011;17777;48.770;8.944;2024-02-15T07:04:08;1.40;;;1.20;;
31128;SDS011;17777;48.770;8.944;2024-02-15T07:06:36;3.25;;;1.30;;
31128;SDS011;17777;48.770;8.944;2024-02-15T07:09:06;2.72;;;1.35;;
31128;SDS011;17777;48.770;8.944;2024-02-15T07:11:32;1.52;;;1.40;;
31128;SDS011;17777;48.770;8.944;2024-02-15T07:14:00;1.58;;;1.35;;
31128;SDS011;17777;48.770;8.944;2024-02-15T07:16:26;1.40;;;1.23;;
31128;SDS011;17777;48.770;8.944;2024-02-15T07:18:52;1.90;;;1.58;;
31128;SDS011;17777;48.770;8.944;2024-02-15T07:21:19;2.95;;;1.60;;
31128;SDS011;17777;48.770;8.944;2024-02-15T07:23:50;2.55;;;1.40;;
31128;SDS011;17777;48.770;8.944;2024-02-15T07:26:17;3.08;;;1.50;;
31128;SDS011;17777;48.770;8.944;2024-02-15T07:28:45;5.15;;;1.55;;
31128;SDS011;17777;48.770;8.944;2024-02-15T07:31:13;4.25;;;1.35;;
31128;SDS011;17777;48.770;8.944;2024-02-15T07:33:39;3.90;;;1.50;;
31128;SDS011;17777;48.770;8.944;2024-02-15T07:36:08;3.95;;;1.70;;
31128;SDS011;17777;48.770;8.944;2024-02-15T07:38:34;3.03;;;1.27;;
31128;SDS011;17777;48.770;8.944;2024-02-15T07:40:59;3.20;;;1.17;;
31128;SDS011;17777;48.770;8.944;2024-02-15T07:43:25;1.20;;;1.10;;
31128;SDS011;17777;48.770;8.944;2024-02-15T07:45:52;2.30;;;1.52;;
31128;SDS011;17777;48.770;8.944;2024-02-15T07:48:18;3.35;;;1.35;;
31128;SDS011;17777;48.770;8.944;2024-02-15T07:50:44;2.38;;;1.63;;
31128;SDS011;17777;48.770;8.944;2024-02-15T07:53:10;3.17;;;1.60;;
31128;SDS011;17777;48.770;8.944;2024-02-15T07:55:37;5.70;;;1.60;;
31128;SDS011;17777;48.770;8.944;2024-02-15T07:58:03;2.63;;;1.77;;
31128;SDS011;17777;48.770;8.944;2024-02-15T08:00:30;3.55;;;1.50;;
31128;SDS011;17777;48.770;8.944;2024-02-15T08:02:55;2.65;;;1.60;;
31128;SDS011;17777;48.770;8.944;2024-02-15T08:05:24;3.55;;;1.85;;
31128;SDS011;17777;48.770;8.944;2024-02-15T08:07:50;2.63;;;1.90;;
31128;SDS011;17777;48.770;8.944;2024-02-15T08:10:16;2.15;;;1.58;;
31128;SDS011;17777;48.770;8.944;2024-02-15T08:12:45;2.97;;;1.65;;
31128;SDS011;17777;48.770;8.944;2024-02-15T08:15:11;4.38;;;1.90;;
31128;SDS011;17777;48.770;8.944;2024-02-15T08:17:41;2.50;;;2.00;;
31128;SDS011;17777;48.770;8.944;2024-02-15T08:20:11;3.63;;;1.98;;
31128;SDS011;17777;48.770;8.944;2024-02-15T08:22:38;2.97;;;2.10;;
31128;SDS011;17777;48.770;8.944;2024-02-15T08:25:06;3.70;;;1.83;;
31128;SDS011;17777;48.770;8.944;2024-02-15T08:27:37;3.92;;;2.33;;
31128;SDS011;17777;48.770;8.944;2024-02-15T08:30:12;2.88;;;1.90;;
31128;SDS011;17777;48.770;8.944;2024-02-15T08:32:39;3.38;;;2.03;;
31128;SDS011;17777;48.770;8.944;2024-02-15T08:35:10;2.08;;;1.88;;
31128;SDS011;17777;48.770;8.944;2024-02-15T08:37:37;3.20;;;1.75;;
31128;SDS011;17777;48.770;8.944;2024-02-15T08:40:05;2.05;;;1.85;;
31128;SDS011;17777;48.770;8.944;2024-02-15T08:42:39;1.58;;;1.35;;
31128;SDS011;17777;48.770;8.944;2024-02-15T08:45:06;3.53;;;1.95;;
31128;SDS011;17777;48.770;8.944;2024-02-15T08:47:36;4.57;;;1.95;;
31128;SDS011;17777;48.770;8.944;2024-02-15T08:50:03;5.78;;;2.25;;
31128;SDS011;17777;48.770;8.944;2024-02-15T08:52:31;4.25;;;2.05;;
31128;SDS011;17777;48.770;8.944;2024-02-15T08:54:57;3.85;;;1.88;;
31128;SDS011;17777;48.770;8.944;2024-02-15T08:57:24;4.18;;;1.67;;
31128;SDS011;17777;48.770;8.944;2024-02-15T08:59:51;2.55;;;1.63;;
31128;SDS011;17777;48.770;8.944;2024-02-15T09:02:17;2.85;;;2.03;;
31128;SDS011;17777;48.770;8.944;2024-02-15T09:04:44;5.55;;;1.58;;
31128;SDS011;17777;48.770;8.944;2024-02-15T09:07:09;3.97;;;1.60;;
31128;SDS011;17777;48.770;8.944;2024-02-15T09:09:35;2.85;;;1.70;;
31128;SDS011;17777;48.770;8.944;2024-02-15T09:12:04;2.40;;;1.70;;
31128;SDS011;17777;48.770;8.944;2024-02-15T09:14:33;3.50;;;1.75;;
31128;SDS011;17777;48.770;8.944;2024-02-15T09:17:02;4.97;;;1.90;;
31128;SDS011;17777;48.770;8.944;2024-02-15T09:19:36;2.72;;;1.50;;
31128;SDS011;17777;48.770;8.944;2024-02-15T09:22:02;4.43;;;1.90;;
31128;SDS011;17777;48.770;8.944;2024-02-15T09:24:31;2.10;;;1.45;;
31128;SDS011;17777;48.770;8.944;2024-02-15T09:27:01;2.70;;;1.23;;
31128;SDS011;17777;48.770;8.944;2024-02-15T09:29:28;1.80;;;1.13;;
31128;SDS011;17777;48.770;8.944;2024-02-15T09:31:59;2.47;;;1.05;;
31128;SDS011;17777;48.770;8.944;2024-02-15T09:34:28;1.60;;;0.82;;
31128;SDS011;17777;48.770;8.944;2024-02-15T09:36:55;1.77;;;1.35;;
31128;SDS011;17777;48.770;8.944;2024-02-15T09:39:21;3.00;;;1.20;;
31128;SDS011;17777;48.770;8.944;2024-02-15T09:41:48;4.57;;;1.30;;
31128;SDS011;17777;48.770;8.944;2024-02-15T09:44:20;2.03;;;1.33;;
31128;SDS011;17777;48.770;8.944;2024-02-15T09:46:47;3.75;;;1.10;;
31128;SDS011;17777;48.770;8.944;2024-02-15T09:49:29;1.35;;;1.00;;
31128;SDS011;17777;48.770;8.944;2024-02-15T09:52:02;1.90;;;1.02;;
31128;SDS011;17777;48.770;8.944;2024-02-15T09:54:30;2.17;;;1.20;;
31128;SDS011;17777;48.770;8.944;2024-02-15T09:56:56;1.95;;;1.08;;
31128;SDS011;17777;48.770;8.944;2024-02-15T09:59:29;1.25;;;0.95;;
31128;SDS011;17777;48.770;8.944;2024-02-15T10:01:57;1.25;;;0.90;;
31128;SDS011;17777;48.770;8.944;2024-02-15T10:04:24;1.17;;;0.93;;
31128;SDS011;17777;48.770;8.944;2024-02-15T10:06:50;0.93;;;0.75;;
31128;SDS011;17777;48.770;8.944;2024-02-15T10:09:23;2.15;;;1.15;;
31128;SDS011;17777;48.770;8.944;2024-02-15T10:11:54;1.10;;;0.80;;
31128;SDS011;17777;48.770;8.944;2024-02-15T10:14:25;3.13;;;1.10;;
31128;SDS011;17777;48.770;8.944;2024-02-15T10:16:54;1.25;;;0.70;;
31128;SDS011;17777;48.770;8.944;2024-02-15T10:19:20;2.35;;;1.05;;
31128;SDS011;17777;48.770;8.944;2024-02-15T10:21:52;1.42;;;1.10;;
31128;SDS011;17777;48.770;8.944;2024-02-15T10:24:20;2.03;;;1.10;;
31128;SDS011;17777;48.770;8.944;2024-02-15T10:26:49;2.25;;;1.10;;
31128;SDS011;17777;48.770;8.944;2024-02-15T10:29:16;3.13;;;1.45;;
31128;SDS011;17777;48.770;8.944;2024-02-15T10:31:53;1.67;;;1.20;;
31128;SDS011;17777;48.770;8.944;2024-02-15T10:34:21;2.03;;;1.35;;
31128;SDS011;17777;48.770;8.944;2024-02-15T10:36:48;2.35;;;1.10;;
31128;SDS011;17777;48.770;8.944;2024-02-15T10:39:16;1.10;;;1.00;;
31128;SDS011;17777;48.770;8.944;2024-02-15T10:41:48;1.65;;;1.20;;
31128;SDS011;17777;48.770;8.944;2024-02-15T10:44:20;3.42;;;0.90;;
31128;SDS011;17777;48.770;8.944;2024-02-15T10:46:48;2.70;;;1.15;;
31128;SDS011;17777;48.770;8.944;2024-02-15T10:49:19;2.13;;;1.17;;
31128;SDS011;17777;48.770;8.944;2024-02-15T10:51:59;1.90;;;1.07;;
31128;SDS011;17777;48.770;8.944;2024-02-15T10:57:08;2.33;;;0.93;;
31128;SDS011;17777;48.770;8.944;2024-02-15T10:59:37;2.17;;;0.82;;
31128;SDS011;17777;48.770;8.944;2024-02-15T11:02:21;2.17;;;0.80;;
31128;SDS011;17777;48.770;8.944;2024-02-15T11:04:58;1.63;;;0.80;;
31128;SDS011;17777;48.770;8.944;2024-02-15T11:07:35;1.40;;;1.00;;
31128;SDS011;17777;48.770;8.944;2024-02-15T11:10:05;1.52;;;0.90;;
31128;SDS011;17777;48.770;8.944;2024-02-15T11:12:33;1.48;;;0.82;;
31128;SDS011;17777;48.770;8.944;2024-02-15T11:14:59;1.45;;;0.70;;
31128;SDS011;17777;48.770;8.944;2024-02-15T11:22:59;1.88;;;0.60;;
31128;SDS011;17777;48.770;8.944;2024-02-15T11:25:36;1.60;;;0.90;;
31128;SDS011;17777;48.770;8.944;2024-02-15T11:30:52;1.23;;;0.57;;
31128;SDS011;17777;48.770;8.944;2024-02-15T11:36:06;1.83;;;0.60;;
31128;SDS011;17777;48.770;8.944;2024-02-15T11:38:35;2.00;;;0.60;;
31128;SDS011;17777;48.770;8.944;2024-02-15T11:41:05;1.80;;;0.50;;
31128;SDS011;17777;48.770;8.944;2024-02-15T11:46:18;1.75;;;0.68;;
31128;SDS011;17777;48.770;8.944;2024-02-15T11:48:47;1.42;;;0.60;;
31128;SDS011;17777;48.770;8.944;2024-02-15T11:51:27;1.23;;;0.60;;
31128;SDS011;17777;48.770;8.944;2024-02-15T11:56:31;0.65;;;0.40;;
31128;SDS011;17777;48.770;8.944;2024-02-15T11:59:42;1.70;;;0.63;;
31128;SDS011;17777;48.770;8.944;2024-02-15T12:02:40;1.13;;;0.50;;
31128;SDS011;17777;48.770;8.944;2024-02-15T12:05:24;0.35;;;0.28;;
31128;SDS011;17777;48.770;8.944;2024-02-15T12:08:10;0.52;;;0.40;;
31128;SDS011;17777;48.770;8.944;2024-02-15T12:11:01;1.63;;;0.70;;
31128;SDS011;17777;48.770;8.944;2024-02-15T12:13:52;1.17;;;0.50;;
31128;SDS011;17777;48.770;8.944;2024-02-15T12:16:36;0.82;;;0.40;;
31128;SDS011;17777;48.770;8.944;2024-02-15T12:19:20;3.75;;;0.35;;
31128;SDS011;17777;48.770;8.944;2024-02-15T12:21:47;0.75;;;0.55;;
31128;SDS011;17777;48.770;8.944;2024-02-15T12:24:14;1.95;;;0.85;;
31128;SDS011;17777;48.770;8.944;2024-02-15T12:26:41;1.20;;;0.55;;
31128;SDS011;17777;48.770;8.944;2024-02-15T12:29:07;0.50;;;0.50;;
31128;SDS011;17777;48.770;8.944;2024-02-15T12:31:33;0.50;;;0.43;;
31128;SDS011;17777;48.770;8.944;2024-02-15T12:34:03;0.65;;;0.50;;
31128;SDS011;17777;48.770;8.944;2024-02-15T12:36:32;2.63;;;0.40;;
31128;SDS011;17777;48.770;8.944;2024-02-15T12:39:03;0.90;;;0.68;;
31128;SDS011;17777;48.770;8.944;2024-02-15T12:41:47;0.60;;;0.50;;
31128;SDS011;17777;48.770;8.944;2024-02-15T12:44:18;2.15;;;0.50;;
31128;SDS011;17777;48.770;8.944;2024-02-15T12:46:53;4.60;;;0.60;;
31128;SDS011;17777;48.770;8.944;2024-02-15T12:51:50;1.50;;;0.57;;
31128;SDS011;17777;48.770;8.944;2024-02-15T12:54:20;1.02;;;0.70;;
31128;SDS011;17777;48.770;8.944;2024-02-15T12:56:49;5.57;;;0.65;;
31128;SDS011;17777;48.770;8.944;2024-02-15T12:59:17;1.70;;;0.57;;
31128;SDS011;17777;48.770;8.944;2024-02-15T13:01:44;3.17;;;0.60;;
31128;SDS011;17777;48.770;8.944;2024-02-15T13:04:25;0.98;;;0.60;;
31128;SDS011;17777;48.770;8.944;2024-02-15T13:06:53;1.20;;;0.70;;
31128;SDS011;17777;48.770;8.944;2024-02-15T13:09:19;0.70;;;0.50;;
31128;SDS011;17777;48.770;8.944;2024-02-15T13:11:47;0.50;;;0.50;;
31128;SDS011;17777;48.770;8.944;2024-02-15T13:14:15;1.33;;;0.50;;
31128;SDS011;17777;48.770;8.944;2024-02-15T13:16:41;1.33;;;0.70;;
31128;SDS011;17777;48.770;8.944;2024-02-15T13:19:08;1.17;;;0.60;;
31128;SDS011;17777;48.770;8.944;2024-02-15T13:21:34;0.98;;;0.70;;
31128;SDS011;17777;48.770;8.944;2024-02-15T13:24:00;1.33;;;0.70;;
31128;SDS011;17777;48.770;8.944;2024-02-15T13:26:31;0.40;;;0.40;;
31128;SDS011;17777;48.770;8.944;2024-02-15T13:28:59;1.52;;;0.80;;
31128;SDS011;17777;48.770;8.944;2024-02-15T13:31:25;1.10;;;0.70;;
31128;SDS011;17777;48.770;8.944;2024-02-15T13:33:52;1.20;;;0.65;;
31128;SDS011;17777;48.770;8.944;2024-02-15T13:36:18;1.25;;;0.73;;
31128;SDS011;17777;48.770;8.944;2024-02-15T13:38:45;2.35;;;0.70;;
31128;SDS011;17777;48.770;8.944;2024-02-15T13:41:12;1.42;;;0.70;;
31128;SDS011;17777;48.770;8.944;2024-02-15T13:43:37;2.75;;;0.60;;
31128;SDS011;17777;48.770;8.944;2024-02-15T13:46:06;1.58;;;0.80;;
31128;SDS011;17777;48.770;8.944;2024-02-15T13:48:31;1.38;;;0.73;;
31128;SDS011;17777;48.770;8.944;2024-02-15T13:50:57;2.33;;;0.68;;
31128;SDS011;17777;48.770;8.944;2024-02-15T13:53:23;0.90;;;0.73;;
31128;SDS011;17777;48.770;8.944;2024-02-15T13:55:50;5.30;;;0.60;;
31128;SDS011;17777;48.770;8.944;2024-02-15T13:58:17;0.60;;;0.50;;
31128;SDS011;17777;48.770;8.944;2024-02-15T14:00:43;1.10;;;0.82;;
31128;SDS011;17777;48.770;8.944;2024-02-15T14:03:10;2.20;;;1.00;;
31128;SDS011;17777;48.770;8.944;2024-02-15T14:05:36;1.35;;;0.90;;
31128;SDS011;17777;48.770;8.944;2024-02-15T14:08:05;2.13;;;0.93;;
31128;SDS011;17777;48.770;8.944;2024-02-15T14:10:31;2.63;;;0.93;;
31128;SDS011;17777;48.770;8.944;2024-02-15T14:13:01;1.02;;;0.80;;
31128;SDS011;17777;48.770;8.944;2024-02-15T14:15:31;1.23;;;0.80;;
31128;SDS011;17777;48.770;8.944;2024-02-15T14:18:09;1.27;;;0.55;;
31128;SDS011;17777;48.770;8.944;2024-02-15T14:20:38;1.90;;;1.00;;
31128;SDS011;17777;48.770;8.944;2024-02-15T14:23:07;0.85;;;0.65;;
31128;SDS011;17777;48.770;8.944;2024-02-15T14:25:38;1.10;;;0.73;;
31128;SDS011;17777;48.770;8.944;2024-02-15T14:28:05;1.85;;;0.75;;
31128;SDS011;17777;48.770;8.944;2024-02-15T14:30:36;0.98;;;0.77;;
31128;SDS011;17777;48.770;8.944;2024-02-15T14:33:23;2.00;;;0.85;;
31128;SDS011;17777;48.770;8.944;2024-02-15T14:35:49;0.88;;;0.70;;
31128;SDS011;17777;48.770;8.944;2024-02-15T14:38:18;1.95;;;0.90;;
31128;SDS011;17777;48.770;8.944;2024-02-15T14:40:48;1.05;;;0.90;;
31128;SDS011;17777;48.770;8.944;2024-02-15T14:43:25;1.20;;;0.77;;
31128;SDS011;17777;48.770;8.944;2024-02-15T14:45:51;1.67;;;0.77;;
31128;SDS011;17777;48.770;8.944;2024-02-15T14:48:19;1.35;;;0.77;;
31128;SDS011;17777;48.770;8.944;2024-02-15T14:50:45;3.38;;;0.70;;
31128;SDS011;17777;48.770;8.944;2024-02-15T14:53:12;1.42;;;0.68;;
31128;SDS011;17777;48.770;8.944;2024-02-15T14:55:38;1.58;;;0.73;;
31128;SDS011;17777;48.770;8.944;2024-02-15T14:58:05;1.83;;;0.90;;
31128;SDS011;17777;48.770;8.944;2024-02-15T15:00:33;1.88;;;0.80;;
31128;SDS011;17777;48.770;8.944;2024-02-15T15:02:59;2.35;;;0.95;;
31128;SDS011;17777;48.770;8.944;2024-02-15T15:05:25;1.90;;;0.63;;
31128;SDS011;17777;48.770;8.944;2024-02-15T15:08:10;1.48;;;0.68;;
31128;SDS011;17777;48.770;8.944;2024-02-15T15:10:54;1.25;;;0.60;;
31128;SDS011;17777;48.770;8.944;2024-02-15T15:16:05;0.88;;;0.65;;
31128;SDS011;17777;48.770;8.944;2024-02-15T15:18:39;0.88;;;0.55;;
31128;SDS011;17777;48.770;8.944;2024-02-15T15:21:06;0.90;;;0.50;;
31128;SDS011;17777;48.770;8.944;2024-02-15T15:23:32;0.85;;;0.85;;